Currently 44°F in Hemet, California, USA
44°F
46°F / 42°F
calm
0.00"
Wednesday, January 18, 2017 6:00 AM PST

Hemet, California Weather Summary
Last 36 Hours

Temperature Winds Hourly Humidity Dewpoint
Time Report Norm Report Norm Max Gusts Precip. Rpt. Norm Rpt. Norm Pressure
1Wed 06:00 AM  43.5°F  48°F  calm  1 mph  none  0.00"  46%  44%  23°F  27°F  30.22"
Wed 05:00 AM  43.5°F  48°F  calm  1 mph  none  0.00"  49%  45%  25°F  27°F  30.22"
Wed 04:00 AM  41.5°F  48°F  calm  1 mph  none  0.00"  54%  45%  25°F  27°F  30.22"
3Wed 03:44 AM  41.5°F  49°F  calm  1 mph  none  ----  53%  45%  25°F  27°F  30.22"
Wed 03:00 AM  43.2°F  49°F  calm  1 mph  none  0.00"  53%  45%  26°F  27°F  30.22"
Wed 02:00 AM  44.4°F  49°F  calm  1 mph  none  0.00"  52%  44%  27°F  27°F  30.24"
2Wed 01:46 AM  45.7°F  49°F  calm  1 mph  none  ----  47%  44%  26°F  28°F  30.24"
Wed 01:00 AM  43.9°F  49°F  calm  1 mph  none  0.00"  54%  44%  28°F  28°F  30.23"
Wed 12:00 AM  45.0°F  50°F  calm  1 mph  none  0.00"  52%  44%  28°F  28°F  30.24"
Tue 11:00 PM  45.7°F  50°F  calm  1 mph  none  0.00"  51%  44%  28°F  28°F  30.24"
Tue 10:00 PM  46.4°F  51°F  calm  1 mph  none  0.00"  50%  44%  28°F  28°F  30.23"
Tue 09:00 PM  47.7°F  51°F  calm  1 mph  none  0.00"  46%  43%  27°F  29°F  30.22"
Tue 08:00 PM  49.1°F  52°F  calm  1 mph  none  0.00"  44%  42%  27°F  29°F  30.21"
Tue 07:01 PM  49.3°F  54°F  calm  2 mph  none  0.00"  46%  42%  28°F  30°F  30.19"
Tue 06:00 PM  54.1°F  56°F  calm  1 mph  5 mph  0.00"  37%  40%  27°F  31°F  30.19"
Tue 05:00 PM  57.9°F  60°F  calm  1 mph  9 mph  0.00"  27%  37%  23°F  33°F  30.17"
Tue 04:00 PM  61.3°F  64°F  6 mph W  1 mph  10 mph  0.00"  26%  31%  25°F  32°F  30.16"
Tue 03:00 PM  62.4°F  66°F  4 mph SW  1 mph  10 mph  0.00"  27%  29%  27°F  31°F  30.15"
Tue 02:00 PM  61.5°F  65°F  calm  2 mph  8 mph  0.00"  25%  29%  24°F  31°F  30.13"
Tue 01:00 PM  60.3°F  64°F  calm  2 mph  3 mph  0.00"  23%  31%  21°F  31°F  30.13"
Tue 12:00 PM  58.1°F  63°F  calm  1 mph  6 mph  0.00"  28%  33%  24°F  32°F  30.16"
Tue 11:00 AM  57.2°F  60°F  1 mph W  1 mph  3 mph  0.00"  34%  37%  28°F  33°F  30.19"
Tue 10:00 AM  55.0°F  57°F  calm  calm  none  0.00"  31%  42%  24°F  33°F  30.22"
Tue 09:00 AM  54.5°F  55°F  calm  calm  none  0.00"  35%  43%  26°F  32°F  30.20"
Tue 08:00 AM  44.8°F  50°F  calm  calm  none  0.00"  46%  45%  24°F  29°F  30.19"
Tue 07:00 AM  41.9°F  48°F  calm  1 mph  none  0.00"  51%  45%  24°F  27°F  30.17"
Tue 06:00 AM  41.9°F  48°F  calm  1 mph  none  0.00"  51%  45%  24°F  27°F  30.16"
Tue 05:00 AM  41.9°F  48°F  calm  1 mph  none  0.00"  52%  45%  25°F  27°F  30.14"
Tue 04:00 AM  42.6°F  48°F  calm  1 mph  none  0.00"  49%  45%  24°F  27°F  30.14"
Tue 03:00 AM  44.2°F  48°F  calm  1 mph  none  0.00"  42%  45%  22°F  27°F  30.13"
Tue 02:00 AM  44.6°F  49°F  calm  1 mph  none  0.00"  42%  45%  22°F  28°F  30.14"
Tue 01:00 AM  46.2°F  49°F  calm  1 mph  3 mph  0.00"  40%  45%  22°F  28°F  30.14"
Tue 12:00 AM  46.0°F  50°F  calm  1 mph  none  0.00"  44%  45%  24°F  28°F  30.14"
Mon 11:00 PM  46.4°F  50°F  calm  1 mph  none  0.00"  47%  45%  26°F  28°F  30.15"
Mon 10:00 PM  47.1°F  51°F  calm  1 mph  3 mph  0.00"  48%  44%  28°F  29°F  30.15"
Mon 09:00 PM  47.5°F  51°F  calm  1 mph  none  0.00"  56%  43%  32°F  29°F  30.14"
Mon 08:00 PM  48.6°F  52°F  calm  2 mph  none  0.00"  60%  43%  35°F  29°F  30.12"
Mon 07:00 PM  49.8°F  53°F  calm  2 mph  none  0.00"  61%  42%  36°F  30°F  30.11"

  1. Current weather data. No green row appears if the current weather data is also the high or low for the current day.
  2. High temperature for the current day.
  3. Low temperature for the current day.

The Hemet weather pages are a service of WeatherCurrents. Hemet, California is located in the San Jacinto Valley, in western Riverside County, at the foot of the San Jacinto mountains.
Copyright ©Wed Jan 18 06:01:59 PST 2017  WeatherCurrents. All rights reserved. - Submit questions and comments - Privacy Policy

This page automatically refreshes every 10 minutes.